createdAt,value
2018-12-06T00:04:50.912Z,96614.00
2018-12-06T00:41:04.446Z,96627.00
2018-12-06T01:17:26.827Z,96627.00
2018-12-06T01:22:29.825Z,96639.00
2018-12-06T01:27:38.825Z,96634.00
2018-12-06T01:32:47.794Z,96637.00
2018-12-06T01:37:56.623Z,96637.00
2018-12-06T01:42:59.459Z,96647.00
2018-12-06T02:00:40.871Z,96647.00
2018-12-06T02:18:36.839Z,96602.00
2018-12-06T02:23:40.895Z,96617.00
2018-12-06T02:28:49.959Z,96620.00
2018-12-06T02:33:58.937Z,96611.00
2018-12-06T02:39:09.703Z,96613.00
2018-12-06T03:21:47.676Z,96568.00
2018-12-06T03:26:50.619Z,96559.00
2018-12-06T03:31:59.577Z,96550.00
2018-12-06T03:37:08.491Z,96559.00
2018-12-06T03:42:17.323Z,96555.00
2018-12-06T04:31:08.337Z,96560.00
2018-12-06T04:36:13.412Z,96571.00
2018-12-06T05:06:25.216Z,96558.00
2018-12-06T05:11:28.207Z,96557.00
2018-12-06T05:16:33.817Z,96548.00
2018-12-06T05:21:42.952Z,96551.00
2018-12-06T05:26:46.294Z,96542.00
2018-12-06T05:31:49.882Z,96539.00
2018-12-06T05:55:33.095Z,96534.00
2018-12-06T06:00:40.894Z,96541.00
2018-12-06T06:05:45.818Z,96561.00
2018-12-06T06:10:52.248Z,96558.00
2018-12-06T06:16:01.010Z,96568.00
2018-12-06T06:21:04.315Z,96562.00
2018-12-06T06:26:10.341Z,96562.00
2018-12-06T06:31:19.515Z,96565.00
2018-12-06T06:36:22.822Z,96561.00
2018-12-06T06:41:32.025Z,96568.00
2018-12-06T06:46:40.890Z,96561.00
2018-12-06T06:51:49.983Z,96567.00
2018-12-06T06:56:52.966Z,96582.00
2018-12-06T07:02:01.763Z,96598.00
2018-12-06T07:07:11.149Z,96604.00
2018-12-06T07:12:20.223Z,96602.00
2018-12-06T07:17:23.249Z,96614.00
2018-12-06T07:22:32.213Z,96616.00
2018-12-06T07:27:41.051Z,96612.00
2018-12-06T07:32:49.900Z,96615.00
2018-12-06T07:37:52.808Z,96629.00
2018-12-06T07:43:01.527Z,96627.00
2018-12-06T07:48:10.525Z,96635.00
2018-12-06T07:53:19.546Z,96624.00
2018-12-06T07:58:22.403Z,96618.00
2018-12-06T08:03:31.407Z,96626.00
2018-12-06T08:08:40.400Z,96624.00
2018-12-06T08:13:49.176Z,96630.00
2018-12-06T08:18:52.203Z,96636.00
2018-12-06T08:24:01.140Z,96634.00
2018-12-06T08:29:10.156Z,96633.00
2018-12-06T08:34:19.131Z,96635.00
2018-12-06T08:39:22.023Z,96283.00
2018-12-06T08:44:25.840Z,96655.00
2018-12-06T08:49:29.371Z,96655.00
2018-12-06T08:54:32.342Z,96665.00
2018-12-06T08:59:35.914Z,96674.00
2018-12-06T09:04:39.873Z,96681.00
2018-12-06T09:09:48.542Z,96673.00
2018-12-06T09:14:54.579Z,96683.00
2018-12-06T09:19:59.451Z,96667.00
2018-12-06T09:25:05.506Z,96693.00
2018-12-06T09:30:09.345Z,96695.00
2018-12-06T09:35:12.522Z,96705.00
2018-12-06T09:40:21.475Z,96692.00
2018-12-06T09:45:27.357Z,96692.00
2018-12-06T09:50:30.891Z,96690.00
2018-12-06T09:55:34.420Z,96684.00
2018-12-06T10:00:37.480Z,96681.00
2018-12-06T10:05:46.143Z,96674.00
2018-12-06T10:10:54.979Z,96695.00
2018-12-06T10:16:00.887Z,96702.00
2018-12-06T10:21:04.190Z,96699.00
2018-12-06T10:26:10.951Z,96702.00
2018-12-06T10:31:18.211Z,96692.00
2018-12-06T10:36:22.063Z,96675.00
2018-12-06T10:41:25.882Z,96674.00
2018-12-06T10:46:32.567Z,96675.00
2018-12-06T10:51:42.075Z,96668.00
2018-12-06T10:56:46.029Z,96674.00
2018-12-06T11:01:56.572Z,96677.00
2018-12-06T11:07:01.954Z,96675.00
2018-12-06T11:12:09.561Z,96688.00
2018-12-06T11:17:19.108Z,96679.00
2018-12-06T11:22:25.213Z,96675.00
2018-12-06T11:27:28.130Z,96676.00
2018-12-06T11:32:32.069Z,96456.00
2018-12-06T11:37:38.192Z,96709.00
2018-12-06T11:42:43.313Z,96653.00
2018-12-06T11:47:47.986Z,96621.00
2018-12-06T11:52:53.017Z,96608.00
2018-12-06T11:57:56.946Z,96615.00
2018-12-06T12:03:00.617Z,96629.00
2018-12-06T12:08:08.466Z,96625.00
2018-12-06T12:13:15.056Z,96631.00
2018-12-06T12:18:23.016Z,96610.00
2018-12-06T12:23:31.915Z,96614.00
2018-12-06T12:28:37.962Z,96596.00
2018-12-06T12:33:41.626Z,96608.00
2018-12-06T12:38:47.577Z,96610.00
2018-12-06T12:43:56.211Z,96617.00
2018-12-06T12:48:59.681Z,96618.00
2018-12-06T12:54:08.567Z,96614.00
2018-12-06T12:59:17.634Z,96622.00
2018-12-06T13:04:22.648Z,96622.00
2018-12-06T13:09:25.560Z,96637.00
2018-12-06T13:14:28.935Z,96639.00
2018-12-06T13:19:35.530Z,96643.00
2018-12-06T13:24:39.611Z,96642.00
2018-12-06T13:29:43.503Z,96658.00
2018-12-06T13:34:48.443Z,96659.00
2018-12-06T13:39:51.445Z,96658.00
2018-12-06T13:44:55.062Z,96660.00
2018-12-06T13:50:01.610Z,96659.00
2018-12-06T13:55:05.178Z,96670.00
2018-12-06T14:00:09.080Z,96671.00
2018-12-06T14:05:13.643Z,96674.00
2018-12-06T14:10:19.505Z,96664.00
2018-12-06T14:15:22.487Z,96669.00
2018-12-06T14:20:26.174Z,96674.00
2018-12-06T14:25:31.059Z,96670.00
2018-12-06T14:30:34.612Z,96675.00
2018-12-06T14:35:38.034Z,96658.00
2018-12-06T14:40:46.964Z,96658.00
2018-12-06T14:45:56.219Z,96676.00
2018-12-06T14:51:04.989Z,96674.00
2018-12-06T14:56:13.831Z,96680.00
2018-12-06T15:01:16.714Z,96690.00
2018-12-06T15:06:25.529Z,96696.00
2018-12-06T15:11:34.378Z,96699.00
2018-12-06T15:16:43.390Z,96714.00
2018-12-06T15:21:46.304Z,96708.00
2018-12-06T15:26:55.555Z,96729.00
2018-12-06T15:32:04.259Z,96711.00
2018-12-06T15:37:13.081Z,96717.00
2018-12-06T15:42:16.060Z,96718.00
2018-12-06T15:47:25.129Z,96704.00
2018-12-06T15:52:33.938Z,96699.00
2018-12-06T15:57:42.890Z,96701.00
2018-12-06T16:02:45.845Z,96701.00
2018-12-06T16:07:54.507Z,96717.00
2018-12-06T16:13:03.268Z,96707.00
2018-12-06T16:18:12.204Z,96702.00
2018-12-06T16:23:15.079Z,96699.00
2018-12-06T16:28:24.736Z,96708.00
2018-12-06T16:33:34.336Z,96703.00
2018-12-06T16:38:43.445Z,96719.00
2018-12-06T16:43:49.887Z,96718.00
2018-12-06T16:48:52.785Z,96724.00
2018-12-06T16:53:59.713Z,96722.00
2018-12-06T16:59:04.728Z,96717.00
2018-12-06T17:04:07.660Z,96726.00
2018-12-06T17:09:10.580Z,96729.00
2018-12-06T17:14:13.595Z,96721.00
2018-12-06T17:19:16.491Z,96722.00
2018-12-06T17:24:20.074Z,96729.00
2018-12-06T17:29:23.108Z,96744.00
2018-12-06T17:34:25.992Z,96751.00
2018-12-06T17:39:29.626Z,96747.00
2018-12-06T17:44:32.567Z,96746.00
2018-12-06T17:49:35.495Z,96752.00
2018-12-06T17:54:39.200Z,96756.00
2018-12-06T17:59:44.199Z,96767.00
2018-12-06T18:04:48.675Z,96756.00
2018-12-06T18:09:53.792Z,96766.00
2018-12-06T18:15:00.495Z,96763.00
2018-12-06T18:20:04.610Z,96765.00
2018-12-06T18:25:07.516Z,96759.00
2018-12-06T18:30:10.671Z,96755.00
2018-12-06T18:35:13.630Z,96767.00
2018-12-06T18:40:17.424Z,96762.00
2018-12-06T18:45:20.512Z,96760.00
2018-12-06T18:50:58.896Z,96756.00
2018-12-06T18:56:01.866Z,96759.00
2018-12-06T19:01:07.782Z,96758.00
2018-12-06T19:06:10.825Z,96749.00
2018-12-06T19:11:15.714Z,96754.00
2018-12-06T19:16:20.195Z,96752.00
2018-12-06T19:21:24.596Z,96753.00
2018-12-06T19:26:28.058Z,96757.00
2018-12-06T19:31:31.162Z,96766.00
2018-12-06T19:36:35.908Z,96719.00
2018-12-06T19:41:40.784Z,96745.00
2018-12-06T19:46:46.854Z,96746.00
2018-12-06T19:51:49.829Z,96742.00
2018-12-06T19:56:54.712Z,96740.00
2018-12-06T20:01:58.297Z,96726.00
2018-12-06T20:07:01.282Z,96749.00
2018-12-06T20:12:04.434Z,96742.00
2018-12-06T20:17:08.162Z,96657.00
2018-12-06T20:22:11.960Z,96727.00
2018-12-06T20:27:15.019Z,96729.00
2018-12-06T20:32:21.027Z,96721.00
2018-12-06T20:37:25.839Z,96718.00
2018-12-06T20:42:29.877Z,96715.00
2018-12-06T20:47:33.950Z,96705.00
2018-12-06T20:52:37.867Z,96714.00
2018-12-06T20:57:41.827Z,96696.00
2018-12-06T21:02:44.868Z,96692.00
2018-12-06T21:07:49.882Z,96697.00
2018-12-06T21:12:54.862Z,96691.00
2018-12-06T21:18:01.845Z,96687.00
2018-12-06T21:23:05.143Z,96688.00
2018-12-06T21:28:09.252Z,96687.00
2018-12-06T21:33:12.647Z,96688.00
2018-12-06T21:38:19.820Z,96691.00
2018-12-06T21:43:26.407Z,96684.00
2018-12-06T21:48:31.442Z,96698.00
2018-12-06T21:53:35.241Z,96706.00
2018-12-06T21:58:38.247Z,96706.00
2018-12-06T22:03:42.045Z,96703.00
2018-12-06T22:08:51.467Z,96700.00
2018-12-06T22:13:57.668Z,96697.00
2018-12-06T22:19:06.647Z,96689.00
2018-12-06T22:24:12.835Z,96694.00
2018-12-06T22:29:17.001Z,96692.00
2018-12-06T22:34:26.190Z,96683.00
2018-12-06T22:39:29.883Z,96683.00
2018-12-06T22:44:36.851Z,96666.00
2018-12-06T22:49:41.291Z,96678.00
2018-12-06T22:54:50.590Z,96657.00
2018-12-06T22:59:53.902Z,96655.00
2018-12-06T23:04:57.447Z,96654.00
2018-12-06T23:10:01.374Z,96651.00
2018-12-06T23:15:05.295Z,96644.00
2018-12-06T23:20:12.000Z,96638.00
2018-12-06T23:25:18.023Z,96637.00
2018-12-06T23:30:21.126Z,96638.00
2018-12-06T23:35:24.806Z,96642.00
2018-12-06T23:40:27.930Z,96631.00
2018-12-06T23:45:31.402Z,96634.00
2018-12-06T23:50:35.927Z,96626.00
2018-12-06T23:55:38.920Z,96627.00
